Time;durP1;ratioP1;P1;durP2;ratioP2;P2;SDS_P1;SDS_P2;PMS_P1;PMS_P2;Temp;Humidity;BMP_temperature;BMP_pressure;BME280_temperature;BME280_humidity;BME280_pressure;Samples;Min_cycle;Max_cycle;Signal;HPM_P1;HPM_P2
2022/06/02 00:00:13;;;;;;;8.63;5.57;;;10.80;99.90;;;;;;7401122;19;20026;-82
2022/06/02 00:03:08;;;;;;;7.65;5.30;;;10.80;99.90;;;;;;7400575;19;20042;-82
2022/06/02 00:05:59;;;;;;;7.00;5.60;;;10.70;99.90;;;;;;7398724;19;20018;-81
2022/06/02 00:08:44;;;;;;;10.05;5.50;;;10.60;99.90;;;;;;7397892;19;20014;-82
2022/06/02 00:11:32;;;;;;;9.15;6.00;;;10.90;99.90;;;;;;7398410;19;20022;-81
2022/06/02 00:14:12;;;;;;;7.63;5.72;;;10.60;99.90;;;;;;7399073;19;20043;-81
2022/06/02 00:16:57;;;;;;;9.60;6.78;;;10.50;99.90;;;;;;7401162;19;20018;-82
2022/06/02 00:19:37;;;;;;;9.43;6.18;;;10.50;99.90;;;;;;7397571;19;20018;-82
2022/06/02 00:22:16;;;;;;;9.27;6.40;;;10.30;99.90;;;;;;7398756;19;20025;-82
2022/06/02 00:24:56;;;;;;;8.82;5.90;;;10.40;99.90;;;;;;7397160;19;20014;-82
2022/06/02 00:27:42;;;;;;;9.23;6.40;;;10.70;99.90;;;;;;7394484;19;20021;-80
2022/06/02 00:30:25;;;;;;;8.10;6.18;;;10.30;99.90;;;;;;7399700;19;20014;-81
2022/06/02 00:33:05;;;;;;;;;;;9.50;99.90;;;;;;7399672;19;20014;-81
2022/06/02 00:35:43;;;;;;;10.25;6.45;;;10.30;99.90;;;;;;7399316;19;19990;-82
2022/06/02 00:38:24;;;;;;;9.63;6.53;;;10.40;99.90;;;;;;7399174;19;20456;-81
2022/06/02 00:40:59;;;;;;;10.48;7.00;;;10.40;99.90;;;;;;7395357;19;20485;-80
2022/06/02 00:43:58;;;;;;;11.00;6.78;;;10.10;99.90;;;;;;7395309;19;20089;-81
2022/06/02 00:46:34;;;;;;;11.57;7.80;;;10.10;99.90;;;;;;7398174;19;21007;-82
2022/06/02 00:49:13;;;;;;;10.38;7.30;;;10.00;99.90;;;;;;7396698;19;20018;-81
2022/06/02 00:51:56;;;;;;;8.90;6.60;;;10.00;99.90;;;;;;7398563;19;20029;-81
2022/06/02 00:57:35;;;;;;;10.65;7.57;;;10.10;99.90;;;;;;7387882;19;20017;-81
2022/06/02 01:00:17;;;;;;;11.32;6.90;;;9.90;99.90;;;;;;7395717;19;20018;-82
2022/06/02 01:02:55;;;;;;;10.73;7.10;;;9.90;99.90;;;;;;7396024;19;20018;-82
2022/06/02 01:05:46;;;;;;;10.30;7.25;;;9.90;99.90;;;;;;7395234;19;20011;-81
2022/06/02 01:08:28;;;;;;;11.00;7.50;;;9.90;99.90;;;;;;7393949;19;20014;-82
2022/06/02 01:11:08;;;;;;;8.73;6.90;;;9.90;99.90;;;;;;7396308;19;20082;-82
2022/06/02 01:14:14;;;;;;;11.20;7.03;;;9.90;99.90;;;;;;7396980;19;20044;-81
2022/06/02 01:16:55;;;;;;;11.60;7.20;;;9.50;99.90;;;;;;7395130;19;20015;-81
2022/06/02 01:20:02;;;;;;;10.25;6.93;;;9.80;99.90;;;;;;7395952;19;20034;-81
2022/06/02 01:23:11;;;;;;;11.57;7.75;;;9.80;99.90;;;;;;7391620;19;20048;-81
2022/06/02 01:26:07;;;;;;;9.93;7.13;;;9.80;99.90;;;;;;7389359;19;20010;-81
2022/06/02 01:28:59;;;;;;;12.00;7.38;;;9.60;99.90;;;;;;7392218;19;20031;-82
2022/06/02 01:31:40;;;;;;;11.80;7.70;;;9.60;99.90;;;;;;7392875;19;20022;-81
2022/06/02 01:34:22;;;;;;;10.15;7.43;;;9.60;99.90;;;;;;7392983;19;20025;-81
2022/06/02 01:37:04;;;;;;;12.52;8.07;;;9.60;99.90;;;;;;7395921;19;20052;-81
2022/06/02 01:39:58;;;;;;;12.48;7.75;;;9.90;99.90;;;;;;7398980;19;20013;-81
2022/06/02 01:42:36;;;;;;;10.35;7.13;;;9.50;99.90;;;;;;7398697;19;20023;-81
2022/06/02 01:45:19;;;;;;;12.02;7.80;;;9.50;99.90;;;;;;7394930;19;20018;-81
2022/06/02 01:48:04;;;;;;;11.98;7.70;;;9.40;99.90;;;;;;7395073;19;20434;-81
2022/06/02 01:50:57;;;;;;;11.10;7.20;;;9.40;99.90;;;;;;7392207;19;20017;-81
2022/06/02 01:53:38;;;;;;;10.93;6.90;;;9.40;99.90;;;;;;7397702;19;20018;-81
2022/06/02 01:56:30;;;;;;;11.32;7.88;;;9.30;99.90;;;;;;7394982;19;20017;-81
2022/06/02 01:59:18;;;;;;;9.57;7.03;;;9.30;99.90;;;;;;7396358;19;20015;-81
2022/06/02 02:02:00;;;;;;;12.55;7.97;;;9.30;99.90;;;;;;7394458;19;20019;-80
2022/06/02 02:05:07;;;;;;;14.30;8.77;;;9.30;99.90;;;;;;7394612;19;20022;-82
2022/06/02 02:07:47;;;;;;;10.57;7.60;;;9.30;99.90;;;;;;7392756;19;20018;-81
2022/06/02 02:10:30;;;;;;;10.90;8.20;;;9.50;99.90;;;;;;7395153;19;20452;-81
2022/06/02 02:13:10;;;;;;;13.32;7.72;;;9.20;99.90;;;;;;7398902;19;20015;-81
2022/06/02 02:15:51;;;;;;;11.20;7.85;;;9.40;99.90;;;;;;7396061;19;20477;-82
2022/06/02 02:18:50;;;;;;;;;;;9.40;99.90;;;;;;7394866;19;20034;-81
2022/06/02 02:21:27;;;;;;;11.93;7.93;;;9.10;99.90;;;;;;7396068;19;19919;-82
2022/06/02 02:24:10;;;;;;;12.88;8.55;;;9.30;99.90;;;;;;7397209;19;20038;-81
2022/06/02 02:26:56;;;;;;;12.32;8.88;;;9.40;99.90;;;;;;7391782;19;20495;-82
2022/06/02 02:29:35;;;;;;;11.88;8.00;;;9.70;99.90;;;;;;7392303;19;20018;-81
2022/06/02 02:32:13;;;;;;;13.93;8.43;;;9.20;99.90;;;;;;7393997;19;20028;-81
2022/06/02 02:34:59;;;;;;;12.55;8.15;;;9.20;99.90;;;;;;7394471;19;20014;-81
2022/06/02 02:37:46;;;;;;;13.40;9.25;;;9.00;99.90;;;;;;7392713;19;20019;-81
2022/06/02 02:40:20;;;;;;;15.00;9.98;;;9.10;99.90;;;;;;7392487;19;20034;-81
2022/06/02 02:42:56;;;;;;;13.43;8.35;;;9.10;99.90;;;;;;7390776;19;20014;-81
2022/06/02 02:45:44;;;;;;;12.95;8.63;;;9.10;99.90;;;;;;7386991;19;20019;-81
2022/06/02 02:48:26;;;;;;;13.93;8.85;;;9.40;99.90;;;;;;7390579;19;20015;-81
2022/06/02 02:51:01;;;;;;;15.27;9.40;;;9.10;99.90;;;;;;7392169;19;20025;-81
2022/06/02 02:53:38;;;;;;;14.05;9.00;;;9.10;99.90;;;;;;7395271;19;20364;-81
2022/06/02 02:56:20;;;;;;;15.27;9.55;;;9.10;99.90;;;;;;7392106;19;20011;-81
2022/06/02 02:58:58;;;;;;;13.82;8.98;;;9.30;99.90;;;;;;7394688;19;20501;-81
2022/06/02 03:01:43;;;;;;;10.85;8.18;;;9.00;99.90;;;;;;7393164;19;20098;-81
2022/06/02 03:04:28;;;;;;;12.67;9.03;;;9.00;99.90;;;;;;7393148;19;20114;-81
2022/06/02 03:06:59;;;;;;;14.43;8.90;;;8.90;99.90;;;;;;7391498;19;20039;-81
2022/06/02 03:09:44;;;;;;;16.17;9.32;;;8.90;99.90;;;;;;7392123;19;20015;-82
2022/06/02 03:12:23;;;;;;;13.95;8.82;;;9.00;99.90;;;;;;7394637;19;20035;-81
2022/06/02 03:15:12;;;;;;;13.38;8.93;;;8.90;99.90;;;;;;7394016;19;20021;-81
2022/06/02 03:18:03;;;;;;;15.35;9.30;;;8.90;99.90;;;;;;7393238;19;20017;-81
2022/06/02 03:20:46;;;;;;;16.25;9.40;;;8.80;99.90;;;;;;7393271;19;20114;-81
2022/06/02 03:23:34;;;;;;;14.43;8.75;;;8.90;99.90;;;;;;7400506;19;20037;-81
2022/06/02 03:26:11;;;;;;;12.85;8.57;;;9.10;99.90;;;;;;7400272;19;20083;-81
2022/06/02 03:29:02;;;;;;;14.90;8.80;;;8.80;99.90;;;;;;7399781;19;20018;-81
2022/06/02 03:31:40;;;;;;;14.10;9.10;;;8.80;99.90;;;;;;7398189;19;20011;-81
2022/06/02 03:34:21;;;;;;;13.25;9.25;;;8.90;99.90;;;;;;7402582;19;20053;-80
2022/06/02 03:37:21;;;;;;;13.60;8.80;;;8.90;99.90;;;;;;7398772;19;20014;-82
2022/06/02 03:40:06;;;;;;;12.25;8.15;;;8.80;99.90;;;;;;7398622;19;20038;-81
2022/06/02 03:42:47;;;;;;;11.63;8.68;;;9.20;99.90;;;;;;7400175;19;20025;-81
2022/06/02 03:45:30;;;;;;;12.57;8.07;;;9.30;99.90;;;;;;7397915;19;20070;-81
2022/06/02 03:48:23;;;;;;;11.70;8.00;;;8.80;99.90;;;;;;7396918;19;20007;-82
2022/06/02 03:51:04;;;;;;;14.25;8.13;;;8.80;99.90;;;;;;7396124;19;20014;-81
2022/06/02 03:54:09;;;;;;;12.30;8.23;;;8.80;99.90;;;;;;7402185;19;20022;-81
2022/06/02 03:56:55;;;;;;;11.68;8.10;;;8.80;99.90;;;;;;7393741;19;20054;-81
2022/06/02 03:59:53;;;;;;;12.93;7.78;;;8.80;99.90;;;;;;7399187;19;20010;-81
2022/06/02 04:02:30;;;;;;;12.80;8.45;;;8.60;99.90;;;;;;7400256;19;20118;-81
2022/06/02 04:05:10;;;;;;;13.52;8.52;;;8.70;99.90;;;;;;7399048;19;20010;-81
2022/06/02 04:07:48;;;;;;;12.55;8.63;;;8.70;99.90;;;;;;7394601;19;20354;-81
2022/06/02 04:10:29;;;;;;;12.02;8.20;;;8.70;99.90;;;;;;7396079;19;20027;-81
2022/06/02 04:16:24;;;;;;;12.13;8.10;;;8.40;99.90;;;;;;7397844;19;20015;-81
2022/06/02 04:22:10;;;;;;;12.00;8.35;;;8.70;99.90;;;;;;7399109;19;20114;-81
2022/06/02 04:24:49;;;;;;;13.65;8.23;;;8.80;99.90;;;;;;7400689;19;20018;-81
2022/06/02 04:27:25;;;;;;;11.45;8.63;;;8.80;99.90;;;;;;7396653;19;20022;-81
2022/06/02 04:30:10;;;;;;;11.68;8.27;;;8.80;99.90;;;;;;7399719;19;20014;-81
2022/06/02 04:32:54;;;;;;;11.80;8.10;;;8.90;99.90;;;;;;7399736;19;20019;-81
2022/06/02 04:35:36;;;;;;;11.32;8.13;;;9.10;99.90;;;;;;7400123;19;20023;-80
2022/06/02 04:38:31;;;;;;;12.10;8.40;;;9.30;99.90;;;;;;7399762;19;20018;-81
2022/06/02 04:41:14;;;;;;;14.63;7.93;;;8.90;99.90;;;;;;7400326;19;20016;-81
2022/06/02 04:43:52;;;;;;;10.55;7.65;;;9.10;99.90;;;;;;7399435;19;20379;-81
2022/06/02 04:46:35;;;;;;;11.10;7.53;;;9.30;99.90;;;;;;7397614;19;20082;-81
2022/06/02 04:49:26;;;;;;;9.20;7.05;;;9.00;99.90;;;;;;7398745;19;20081;-81
2022/06/02 04:52:11;;;;;;;10.77;7.18;;;9.40;99.90;;;;;;7398103;19;20025;-81
2022/06/02 04:54:54;;;;;;;11.45;7.20;;;8.90;99.90;;;;;;7399953;19;20518;-81
2022/06/02 04:57:32;;;;;;;10.63;6.32;;;9.20;99.90;;;;;;7397029;19;20010;-81
2022/06/02 05:00:13;;;;;;;10.98;6.72;;;9.10;99.90;;;;;;7398232;19;20046;-81
2022/06/02 05:02:59;;;;;;;10.13;6.70;;;9.30;99.90;;;;;;7396554;19;20014;-81
2022/06/02 05:05:40;;;;;;;9.17;6.17;;;9.70;99.90;;;;;;7400123;19;20019;-81
2022/06/02 05:08:42;;;;;;;10.88;6.35;;;9.20;99.90;;;;;;7397372;19;20286;-81
2022/06/02 05:11:23;;;;;;;9.50;5.90;;;9.40;99.90;;;;;;7398612;19;20449;-81
2022/06/02 05:14:07;;;;;;;9.13;6.05;;;9.40;99.90;;;;;;7398372;19;20082;-81
2022/06/02 05:16:52;;;;;;;8.07;5.70;;;9.40;99.90;;;;;;7397368;19;20019;-81
2022/06/02 05:19:52;;;;;;;9.27;4.68;;;9.60;99.90;;;;;;7397547;19;20014;-81
2022/06/02 05:23:09;;;;;;;6.10;4.60;;;9.80;99.90;;;;;;7396394;19;20022;-81
2022/06/02 05:26:17;;;;;;;5.50;3.67;;;9.80;99.90;;;;;;7395837;19;20045;-82
2022/06/02 05:29:20;;;;;;;6.35;3.55;;;9.70;99.90;;;;;;7392088;19;20010;-81
2022/06/02 05:32:16;;;;;;;4.60;3.40;;;9.80;99.90;;;;;;7399169;19;20035;-81
2022/06/02 05:35:15;;;;;;;5.20;3.13;;;9.80;99.90;;;;;;7399483;19;20074;-81
2022/06/02 05:38:05;;;;;;;6.22;3.60;;;9.70;99.90;;;;;;7399133;19;20039;-81
2022/06/02 05:40:41;;;;;;;6.68;4.05;;;9.90;99.90;;;;;;7399525;19;20374;-80
2022/06/02 05:43:25;;;;;;;6.63;4.20;;;9.90;99.90;;;;;;7394475;19;20014;-79
2022/06/02 05:46:12;;;;;;;6.07;4.07;;;10.00;99.90;;;;;;7398508;19;20073;-79
2022/06/02 05:48:49;;;;;;;;;;;10.00;99.90;;;;;;7396451;19;20477;-79
2022/06/02 05:51:29;;;;;;;8.52;4.07;;;10.00;99.90;;;;;;7395991;19;19918;-79
2022/06/02 05:54:14;;;;;;;5.40;3.85;;;10.10;99.90;;;;;;7398226;19;20042;-78
2022/06/02 05:56:56;;;;;;;5.38;4.00;;;10.10;99.90;;;;;;7394028;19;20014;-79
2022/06/02 05:59:44;;;;;;;4.60;3.53;;;10.20;99.90;;;;;;7396480;19;20015;-78
2022/06/02 06:03:02;;;;;;;5.75;3.55;;;10.20;99.90;;;;;;7398661;19;20038;-79
2022/06/02 06:05:41;;;;;;;5.80;3.60;;;10.30;99.90;;;;;;7391181;19;20022;-79
2022/06/02 06:08:33;;;;;;;4.45;3.10;;;10.30;99.90;;;;;;7392950;19;20070;-78
2022/06/02 06:11:20;;;;;;;7.32;3.22;;;10.40;99.90;;;;;;7390739;19;20018;-80
2022/06/02 06:14:11;;;;;;;5.45;3.15;;;10.40;99.90;;;;;;7391010;19;20082;-78
2022/06/02 06:17:01;;;;;;;4.82;3.17;;;10.60;99.90;;;;;;7391329;19;20011;-80
2022/06/02 06:19:48;;;;;;;6.43;3.50;;;10.40;99.90;;;;;;7394396;19;20022;-78
2022/06/02 06:22:52;;;;;;;5.13;3.17;;;10.50;99.90;;;;;;7393528;19;20501;-79
2022/06/02 06:25:30;;;;;;;5.68;2.95;;;10.50;99.90;;;;;;7390317;19;20018;-77
2022/06/02 06:28:16;;;;;;;12.48;3.92;;;10.70;99.90;;;;;;7389954;19;20011;-78
2022/06/02 06:31:03;;;;;;;8.00;3.45;;;10.60;99.90;;;;;;7391483;19;20015;-78
2022/06/02 06:33:57;;;;;;;6.75;3.30;;;10.60;99.90;;;;;;7392243;19;20364;-78
2022/06/02 06:36:59;;;;;;;4.82;3.33;;;10.60;99.90;;;;;;7390539;19;20010;-78
2022/06/02 06:39:43;;;;;;;4.63;2.80;;;10.80;99.90;;;;;;7392055;19;20019;-78
2022/06/02 06:42:41;;;;;;;6.73;3.47;;;10.70;99.90;;;;;;7394733;19;20011;-78
2022/06/02 06:45:18;;;;;;;5.88;2.92;;;10.70;99.90;;;;;;7391627;19;20036;-78
2022/06/02 06:48:06;;;;;;;5.40;3.10;;;10.70;99.90;;;;;;7391921;19;20035;-78
2022/06/02 06:50:51;;;;;;;5.60;3.20;;;10.80;99.90;;;;;;7391198;19;20035;-78
2022/06/02 06:53:48;;;;;;;5.80;3.28;;;10.90;99.90;;;;;;7396168;19;20037;-78
2022/06/02 06:56:32;;;;;;;5.80;3.50;;;11.10;99.90;;;;;;7399149;19;20010;-78
2022/06/02 06:59:29;;;;;;;6.22;3.40;;;11.00;99.90;;;;;;7399462;19;20018;-78
2022/06/02 07:02:09;;;;;;;3.38;2.35;;;11.00;99.90;;;;;;7400627;19;20046;-77
2022/06/02 07:04:49;;;;;;;4.95;2.95;;;11.10;99.90;;;;;;7400672;19;20010;-78
2022/06/02 07:07:26;;;;;;;3.95;1.80;;;11.00;99.90;;;;;;7398468;19;20018;-78
2022/06/02 07:10:05;;;;;;;3.65;1.83;;;11.20;99.90;;;;;;7397912;19;20023;-78
2022/06/02 07:12:54;;;;;;;2.50;2.08;;;11.30;99.90;;;;;;7400727;19;20015;-77
2022/06/02 07:15:40;;;;;;;4.35;2.42;;;11.40;99.90;;;;;;7400617;19;20025;-78
2022/06/02 07:18:26;;;;;;;2.40;1.80;;;11.40;99.90;;;;;;7396227;19;20501;-78
2022/06/02 07:21:04;;;;;;;4.22;2.10;;;11.50;99.90;;;;;;7399511;19;20390;-78
2022/06/02 07:23:53;;;;;;;4.60;1.98;;;11.50;99.90;;;;;;7401346;19;20441;-77
2022/06/02 07:26:41;;;;;;;5.03;2.22;;;11.60;99.90;;;;;;7398141;19;20018;-78
2022/06/02 07:29:42;;;;;;;4.40;2.50;;;11.70;99.90;;;;;;7396227;19;20473;-78
2022/06/02 07:32:40;;;;;;;4.03;1.90;;;11.80;99.90;;;;;;7399305;19;20024;-78
2022/06/02 07:35:51;;;;;;;5.65;2.13;;;11.90;99.90;;;;;;7403044;19;20042;-78
2022/06/02 07:38:37;;;;;;;5.85;2.10;;;12.00;99.90;;;;;;7400510;19;20434;-78
2022/06/02 07:41:44;;;;;;;3.58;1.80;;;11.90;99.90;;;;;;7398443;19;20476;-78
2022/06/02 07:44:34;;;;;;;3.33;2.20;;;12.10;99.90;;;;;;7404546;19;20014;-78
2022/06/02 07:47:26;;;;;;;4.90;1.90;;;12.00;99.90;;;;;;7397251;19;20679;-77
2022/06/02 07:50:18;;;;;;;4.65;2.10;;;12.30;99.90;;;;;;7396517;19;20019;-78
2022/06/02 07:53:01;;;;;;;3.38;2.22;;;12.00;99.90;;;;;;7397416;19;20018;-78
2022/06/02 07:55:41;;;;;;;3.17;2.20;;;12.00;99.90;;;;;;7396537;19;20126;-78
2022/06/02 07:58:30;;;;;;;3.47;2.10;;;12.30;99.90;;;;;;7397260;19;20010;-78
2022/06/02 08:01:16;;;;;;;3.67;2.47;;;12.40;99.90;;;;;;7396330;19;20036;-78
2022/06/02 08:04:03;;;;;;;5.18;2.13;;;12.50;99.90;;;;;;7398331;19;20018;-78
2022/06/02 08:06:41;;;;;;;3.85;2.45;;;12.40;99.90;;;;;;7395826;19;20015;-78
2022/06/02 08:09:42;;;;;;;3.35;2.25;;;12.40;99.90;;;;;;7395187;19;20043;-78
2022/06/02 08:12:27;;;;;;;6.18;2.80;;;12.50;99.90;;;;;;7397633;19;21161;-78
2022/06/02 08:15:12;;;;;;;4.30;2.53;;;12.70;99.90;;;;;;7394434;19;20021;-78
2022/06/02 08:17:53;;;;;;;6.18;2.60;;;12.40;99.90;;;;;;7397363;19;20047;-78
2022/06/02 08:20:50;;;;;;;5.00;2.45;;;12.60;99.90;;;;;;7396361;19;20011;-78
2022/06/02 08:23:52;;;;;;;4.55;2.40;;;12.80;99.90;;;;;;7392679;19;20018;-78
2022/06/02 08:26:30;;;;;;;6.57;2.40;;;12.00;99.90;;;;;;7392461;19;20515;-78
2022/06/02 08:29:13;;;;;;;4.03;2.35;;;12.90;99.90;;;;;;7393187;19;20053;-78
2022/06/02 08:32:04;;;;;;;5.50;2.72;;;12.90;99.90;;;;;;7397800;19;20433;-78
2022/06/02 08:34:53;;;;;;;4.40;2.55;;;12.80;99.90;;;;;;7396946;19;20034;-78
2022/06/02 08:37:42;;;;;;;3.65;2.10;;;12.80;99.90;;;;;;7396457;19;20141;-78
2022/06/02 08:40:37;;;;;;;3.67;2.13;;;12.40;99.90;;;;;;7396008;19;20015;-78
2022/06/02 08:43:44;;;;;;;6.80;2.03;;;12.90;99.90;;;;;;7396512;19;20017;-78
2022/06/02 08:46:47;;;;;;;3.97;1.90;;;12.90;99.90;;;;;;7392526;19;20022;-78
2022/06/02 08:49:46;;;;;;;3.28;2.53;;;12.80;99.90;;;;;;7392594;19;20014;-78
2022/06/02 08:53:03;;;;;;;3.00;1.90;;;12.70;99.90;;;;;;7394584;19;20123;-78
2022/06/02 08:56:00;;;;;;;3.88;2.20;;;13.20;99.90;;;;;;7393083;19;20483;-78
2022/06/02 08:58:48;;;;;;;;;;;13.10;99.90;;;;;;7392347;19;20018;-78
2022/06/02 09:01:40;;;;;;;4.68;2.65;;;14.50;99.90;;;;;;7393255;19;19922;-77
2022/06/02 09:04:42;;;;;;;3.33;1.90;;;13.20;99.90;;;;;;7395057;19;20015;-78
2022/06/02 09:07:48;;;;;;;3.85;1.83;;;13.40;99.90;;;;;;7390170;19;20051;-78
2022/06/02 09:10:38;;;;;;;4.32;1.85;;;13.30;99.90;;;;;;7390218;19;20018;-78
2022/06/02 09:13:38;;;;;;;5.45;2.10;;;13.70;99.90;;;;;;7394114;19;20058;-78
2022/06/02 09:16:23;;;;;;;2.55;1.90;;;13.40;99.90;;;;;;7393360;19;20587;-78
2022/06/02 09:19:12;;;;;;;4.97;2.20;;;13.60;99.90;;;;;;7388267;19;20014;-78
2022/06/02 09:22:04;;;;;;;3.63;2.30;;;13.60;99.90;;;;;;7394196;19;20379;-78
2022/06/02 09:24:53;;;;;;;3.83;2.35;;;13.70;99.90;;;;;;7391789;19;20039;-78
2022/06/02 09:27:52;;;;;;;5.00;2.80;;;13.80;99.90;;;;;;7392321;19;20014;-78
2022/06/02 09:30:30;;;;;;;4.80;2.67;;;13.70;99.90;;;;;;7390181;19;20091;-78
2022/06/02 09:36:01;;;;;;;;;;;13.70;99.90;;;;;;7391333;19;20104;-78
2022/06/02 09:38:56;;;;;;;4.05;2.25;;;13.80;99.90;;;;;;7390554;19;19922;-78
2022/06/02 09:41:50;;;;;;;4.68;1.85;;;13.90;99.90;;;;;;7391978;19;20082;-78
2022/06/02 09:44:29;;;;;;;4.78;2.20;;;14.00;99.90;;;;;;7392526;19;20027;-79
2022/06/02 09:47:32;;;;;;;5.75;3.00;;;13.90;99.90;;;;;;7392381;19;20049;-78
2022/06/02 09:50:25;;;;;;;2.70;1.80;;;13.90;99.90;;;;;;7390753;19;20018;-78
2022/06/02 09:53:21;;;;;;;4.85;2.53;;;14.00;99.90;;;;;;7393641;19;20022;-78
2022/06/02 09:56:06;;;;;;;3.28;1.80;;;13.90;99.90;;;;;;7391237;19;20486;-78
2022/06/02 09:58:55;;;;;;;4.85;2.00;;;13.90;99.90;;;;;;7387757;19;20018;-78
2022/06/02 10:01:47;;;;;;;4.97;1.75;;;14.50;99.90;;;;;;7391714;19;20021;-78
2022/06/02 10:04:51;;;;;;;2.85;2.10;;;14.30;99.90;;;;;;7389084;19;20021;-78
2022/06/02 10:07:35;;;;;;;3.78;2.58;;;14.40;99.90;;;;;;7388264;19;20042;-80
2022/06/02 10:10:43;;;;;;;4.32;2.15;;;14.30;99.90;;;;;;7397209;19;20031;-79
2022/06/02 10:13:48;;;;;;;3.60;1.92;;;14.40;99.90;;;;;;7393959;19;20090;-80
2022/06/02 10:16:52;;;;;;;2.95;1.75;;;14.30;99.90;;;;;;7396609;19;20021;-79
2022/06/02 10:19:49;;;;;;;3.00;2.15;;;14.70;99.90;;;;;;7394067;19;20098;-78
2022/06/02 10:22:31;;;;;;;4.63;2.10;;;14.70;99.90;;;;;;7392042;19;20039;-79
2022/06/02 10:25:30;;;;;;;4.97;2.40;;;14.70;99.90;;;;;;7393137;19;20030;-78
2022/06/02 10:28:26;;;;;;;5.05;2.13;;;14.50;99.90;;;;;;7391387;19;20418;-79
2022/06/02 10:31:41;;;;;;;2.58;1.90;;;14.60;99.90;;;;;;7400846;19;20034;-79
2022/06/02 10:34:58;;;;;;;5.03;2.20;;;14.70;99.90;;;;;;7399849;19;20021;-79
2022/06/02 10:38:05;;;;;;;4.80;2.30;;;14.80;99.90;;;;;;7401172;19;20021;-79
2022/06/02 10:40:59;;;;;;;4.00;2.37;;;14.70;99.90;;;;;;7396104;19;20039;-79
2022/06/02 10:43:59;;;;;;;4.45;2.00;;;14.50;99.90;;;;;;7400131;19;20026;-79
2022/06/02 10:47:09;;;;;;;4.10;2.05;;;14.80;99.90;;;;;;7396516;19;20017;-78
2022/06/02 10:49:56;;;;;;;4.97;2.30;;;15.10;99.90;;;;;;7396455;19;20022;-78
2022/06/02 10:52:57;;;;;;;3.42;2.30;;;15.10;99.90;;;;;;7401849;19;20011;-78
2022/06/02 10:55:59;;;;;;;14.95;5.20;;;14.90;99.90;;;;;;7396751;19;20504;-79
2022/06/02 10:59:06;;;;;;;2.22;1.70;;;14.70;99.90;;;;;;7398800;19;20018;-79
2022/06/02 11:02:14;;;;;;;5.75;2.60;;;15.00;99.90;;;;;;7397771;19;20029;-76
2022/06/02 11:05:13;;;;;;;7.03;2.00;;;14.90;99.90;;;;;;7394445;19;20366;-77
2022/06/02 11:08:18;;;;;;;5.38;2.03;;;13.30;99.90;;;;;;7400678;19;20045;-76
2022/06/02 11:11:07;;;;;;;3.30;2.20;;;15.50;99.90;;;;;;7396555;19;20034;-77
2022/06/02 11:14:02;;;;;;;3.70;2.20;;;15.80;99.90;;;;;;7402634;19;20013;-78
2022/06/02 11:17:03;;;;;;;6.30;2.70;;;16.00;99.90;;;;;;7395017;19;20046;-77
2022/06/02 11:20:10;;;;;;;3.22;2.15;;;16.10;99.90;;;;;;7401385;19;20021;-77
2022/06/02 11:23:08;;;;;;;4.00;2.33;;;16.00;99.90;;;;;;7398550;19;20022;-77
2022/06/02 11:26:09;;;;;;;5.32;2.30;;;15.60;99.90;;;;;;7393696;19;20111;-78
2022/06/02 11:29:16;;;;;;;3.03;1.77;;;15.60;99.90;;;;;;7397682;19;20029;-78
2022/06/02 11:32:13;;;;;;;5.35;2.33;;;15.90;99.90;;;;;;7397069;19;20072;-78
2022/06/02 11:35:13;;;;;;;3.80;1.90;;;16.20;99.90;;;;;;7399891;19;20018;-77
2022/06/02 11:38:17;;;;;;;3.03;2.28;;;16.20;99.90;;;;;;7399292;19;20048;-78
2022/06/02 11:41:15;;;;;;;2.15;1.70;;;16.50;99.90;;;;;;7397430;19;20019;-78
2022/06/02 11:43:59;;;;;;;4.88;2.42;;;16.60;99.90;;;;;;7394162;19;20010;-77
2022/06/02 11:46:53;;;;;;;3.17;2.13;;;16.40;99.90;;;;;;7395567;19;20094;-77
2022/06/02 11:49:48;;;;;;;4.20;2.13;;;16.00;99.90;;;;;;7399491;19;20021;-77
2022/06/02 11:53:05;;;;;;;3.05;1.98;;;16.20;99.90;;;;;;7403110;19;20011;-78
2022/06/02 11:55:42;;;;;;;3.15;1.80;;;16.20;99.90;;;;;;7400486;19;20021;-77
2022/06/02 11:58:43;;;;;;;3.20;2.30;;;16.30;99.90;;;;;;7400814;19;20014;-77
2022/06/02 12:01:43;;;;;;;8.75;2.55;;;16.30;99.90;;;;;;7398172;19;20046;-78
2022/06/02 12:04:47;;;;;;;3.13;2.15;;;16.60;99.90;;;;;;7400617;19;20010;-77
2022/06/02 12:07:59;;;;;;;3.70;2.10;;;16.60;99.90;;;;;;7390779;19;20025;-78
2022/06/02 12:10:50;;;;;;;4.68;2.20;;;16.50;99.90;;;;;;7394923;19;20018;-78
2022/06/02 12:13:56;;;;;;;3.72;1.95;;;16.40;99.90;;;;;;7402785;19;20473;-78
2022/06/02 12:16:52;;;;;;;2.47;1.88;;;16.60;98.90;;;;;;7401819;19;20505;-78
2022/06/02 12:19:49;;;;;;;3.88;2.08;;;16.80;99.40;;;;;;7395275;19;20484;-77
2022/06/02 12:22:29;;;;;;;;;;;17.00;99.90;;;;;;7398143;19;20014;-77
2022/06/02 12:25:18;;;;;;;2.90;1.92;;;17.20;98.00;;;;;;7398917;19;19929;-78
2022/06/02 12:28:24;;;;;;;3.78;2.22;;;17.30;99.40;;;;;;7398465;19;20011;-77
2022/06/02 12:31:24;;;;;;;4.60;2.00;;;17.40;97.80;;;;;;7392740;19;20021;-77
2022/06/02 12:34:12;;;;;;;3.53;2.33;;;17.10;99.10;;;;;;7397617;19;20095;-77
2022/06/02 12:37:00;;;;;;;3.88;1.70;;;17.10;98.90;;;;;;7395781;19;20079;-78
2022/06/02 12:39:59;;;;;;;3.75;2.03;;;17.30;98.90;;;;;;7399512;19;20019;-77
2022/06/02 12:42:55;;;;;;;5.32;2.15;;;17.30;98.70;;;;;;7395698;19;20017;-78
2022/06/02 12:45:58;;;;;;;5.20;4.10;;;17.50;97.80;;;;;;7397143;19;20011;-78
2022/06/02 12:49:13;;;;;;;5.60;2.58;;;17.90;98.20;;;;;;7397058;19;20323;-78
2022/06/02 12:52:01;;;;;;;4.97;2.00;;;17.80;96.80;;;;;;7396367;19;20018;-78
2022/06/02 12:55:22;;;;;;;3.17;2.00;;;18.20;98.60;;;;;;7398023;19;20010;-78
2022/06/02 12:58:34;;;;;;;5.85;2.83;;;18.50;97.80;;;;;;7392457;19;20039;-77
2022/06/02 13:01:43;;;;;;;4.38;2.10;;;18.60;96.50;;;;;;7396293;19;20018;-78
2022/06/02 13:04:56;;;;;;;4.07;1.95;;;18.70;97.40;;;;;;7396490;19;20019;-78
2022/06/02 13:08:13;;;;;;;4.07;1.98;;;18.80;96.80;;;;;;7395627;19;20066;-77
2022/06/02 13:11:10;;;;;;;7.78;3.50;;;19.20;96.50;;;;;;7393871;19;20510;-78
2022/06/02 13:14:16;;;;;;;5.30;2.28;;;19.50;94.70;;;;;;7395087;19;20111;-78
2022/06/02 13:17:10;;;;;;;7.45;2.20;;;19.30;94.80;;;;;;7396008;19;20023;-77
2022/06/02 13:20:13;;;;;;;4.38;2.15;;;19.00;94.20;;;;;;7395683;19;20014;-78
2022/06/02 13:23:23;;;;;;;5.20;2.33;;;18.70;95.30;;;;;;7398949;19;20019;-78
2022/06/02 13:26:26;;;;;;;5.72;2.60;;;18.80;93.90;;;;;;7392240;19;20026;-77
2022/06/02 13:29:24;;;;;;;2.47;1.83;;;18.90;93.50;;;;;;7389578;19;20098;-78
2022/06/02 13:32:18;;;;;;;5.05;2.40;;;19.10;96.00;;;;;;7391060;19;20385;-77
2022/06/02 13:35:21;;;;;;;4.82;2.50;;;19.40;94.10;;;;;;7395791;19;20031;-78
2022/06/02 13:38:18;;;;;;;4.10;2.22;;;19.50;93.00;;;;;;7396117;19;20016;-78
2022/06/02 13:41:01;;;;;;;5.70;2.28;;;19.50;94.40;;;;;;7394940;19;20014;-77
2022/06/02 13:43:53;;;;;;;3.13;2.00;;;19.80;93.90;;;;;;7393002;19;20022;-78
2022/06/02 13:47:02;;;;;;;4.03;2.08;;;19.80;93.20;;;;;;7393797;19;20010;-78
2022/06/02 13:50:07;;;;;;;3.22;1.80;;;20.20;92.00;;;;;;7392723;19;20011;-78
2022/06/02 13:53:07;;;;;;;7.13;2.47;;;20.40;93.70;;;;;;7393626;19;20465;-77
2022/06/02 13:59:23;;;;;;;4.45;2.20;;;19.60;91.00;;;;;;7395004;19;20430;-77
2022/06/02 14:02:25;;;;;;;6.25;2.42;;;20.60;89.30;;;;;;7393436;19;20007;-78
2022/06/02 14:05:13;;;;;;;3.78;1.85;;;21.00;92.00;;;;;;7391800;19;20021;-78
2022/06/02 14:08:13;;;;;;;3.38;2.10;;;21.40;90.90;;;;;;7394175;19;20018;-78
2022/06/02 14:11:06;;;;;;;2.58;1.90;;;21.30;90.60;;;;;;7392357;19;20020;-78
2022/06/02 14:14:04;;;;;;;4.57;1.92;;;21.50;90.10;;;;;;7393167;19;20031;-78
2022/06/02 14:16:48;;;;;;;5.22;1.95;;;21.90;90.40;;;;;;7392115;19;20313;-78
2022/06/02 14:19:45;;;;;;;3.38;1.58;;;21.80;88.40;;;;;;7393564;19;20033;-78
2022/06/02 14:22:26;;;;;;;2.85;1.75;;;21.70;89.40;;;;;;7394080;19;20014;-78
2022/06/02 14:25:10;;;;;;;3.65;1.75;;;21.90;88.90;;;;;;7394432;19;20496;-78
2022/06/02 14:27:48;;;;;;;3.47;1.83;;;21.60;89.50;;;;;;7396706;19;20018;-78
2022/06/02 14:30:27;;;;;;;2.70;1.60;;;22.20;90.30;;;;;;7393940;19;20074;-78
2022/06/02 14:33:05;;;;;;;4.40;1.65;;;22.10;89.30;;;;;;7395464;19;20006;-78
2022/06/02 14:35:48;;;;;;;3.35;1.63;;;22.10;89.60;;;;;;7393155;19;20015;-78
2022/06/02 14:38:46;;;;;;;2.50;1.60;;;22.10;88.60;;;;;;7390866;19;20465;-76
2022/06/02 14:41:28;;;;;;;4.50;2.10;;;22.30;90.60;;;;;;7395605;19;20022;-76
2022/06/02 14:44:19;;;;;;;6.97;2.35;;;22.40;89.90;;;;;;7392963;19;20010;-76
2022/06/02 14:47:20;;;;;;;3.30;1.70;;;22.70;86.90;;;;;;7394705;19;20010;-76
2022/06/02 14:50:12;;;;;;;4.03;1.45;;;22.80;85.80;;;;;;7394832;19;20038;-76
2022/06/02 14:52:58;;;;;;;2.67;1.55;;;22.70;88.00;;;;;;7392115;19;20007;-76
2022/06/02 14:55:41;;;;;;;3.15;1.60;;;22.90;87.20;;;;;;7391306;19;20047;-76
2022/06/02 14:58:25;;;;;;;3.63;1.50;;;22.90;85.60;;;;;;7389808;19;20014;-80
2022/06/02 15:01:08;;;;;;;3.95;1.40;;;23.20;85.40;;;;;;7396117;19;20481;-73
2022/06/02 15:04:08;;;;;;;6.20;1.65;;;23.10;85.10;;;;;;7391244;19;20014;-76